Time;durP1;ratioP1;P1;durP2;ratioP2;P2;SDS_P1;SDS_P2;PMS_P1;PMS_P2;Temp;Humidity;BMP_temperature;BMP_pressure;BME280_temperature;BME280_humidity;BME280_pressure;Samples;Min_cycle;Max_cycle;Signal;HPM_P1;HPM_P2
2021/11/10 00:02:06;;;;;;;;;32.25;23.25;;;;;5.40;69.47;101327.75;5039384;28;45400;-78
2021/11/10 00:04:31;;;;;;;;;32.25;24.00;;;;;5.40;69.78;101329.50;5039061;28;46211;-77
2021/11/10 00:06:57;;;;;;;;;32.75;30.50;;;;;5.39;69.80;101333.03;5037253;28;45476;-78
2021/11/10 00:09:22;;;;;;;;;50.67;37.33;;;;;5.39;69.85;101341.84;5039086;28;45253;-77
2021/11/10 00:11:47;;;;;;;;;42.50;35.25;;;;;5.39;69.77;101339.19;5038868;28;45270;-77
2021/11/10 00:14:13;;;;;;;;;40.50;31.25;;;;;5.42;69.77;101333.00;5038646;28;46333;-78
2021/11/10 00:16:39;;;;;;;;;33.25;25.50;;;;;5.41;69.66;101320.69;5038642;28;45266;-77
2021/11/10 00:19:04;;;;;;;;;29.00;25.75;;;;;5.39;69.00;101315.47;5038943;28;45480;-78
2021/11/10 00:21:30;;;;;;;;;30.00;21.25;;;;;5.39;68.52;101317.22;5038725;28;45257;-77
2021/11/10 00:23:57;;;;;;;;;23.75;20.50;;;;;5.32;68.12;101305.94;5038015;28;46247;-77
2021/11/10 00:26:22;;;;;;;;;29.50;16.50;;;;;5.28;67.98;101313.03;5038331;28;45733;-78
2021/11/10 00:28:49;;;;;;;;;21.50;14.75;;;;;5.22;67.95;101320.22;5038282;28;45177;-77
2021/11/10 00:31:15;;;;;;;;;25.75;18.00;;;;;5.10;68.29;101309.03;5037813;28;45244;-78
2021/11/10 00:33:41;;;;;;;;;22.75;19.50;;;;;5.03;68.71;101299.53;5037569;28;46540;-77
2021/11/10 00:36:08;;;;;;;;;19.25;19.25;;;;;5.03;68.45;101307.44;5037744;28;45187;-78
2021/11/10 00:38:33;;;;;;;;;27.00;21.00;;;;;4.97;68.81;101291.72;5037647;28;45274;-78
2021/11/10 00:40:59;;;;;;;;;26.50;21.75;;;;;4.94;68.85;101279.47;5037858;28;45164;-78
2021/11/10 00:43:24;;;;;;;;;22.67;20.33;;;;;4.94;68.98;101270.69;5038009;28;45307;-78
2021/11/10 00:45:50;;;;;;;;;29.33;24.33;;;;;4.96;68.91;101269.78;5038579;28;45258;-77
2021/11/10 00:48:16;;;;;;;;;32.75;19.50;;;;;4.95;69.24;101277.72;5038567;28;45249;-78
2021/11/10 00:50:41;;;;;;;;;23.25;17.75;;;;;4.93;69.08;101290.03;5038665;28;45330;-78
2021/11/10 00:53:07;;;;;;;;;19.75;15.75;;;;;4.90;69.45;101298.00;5038137;28;45494;-77
2021/11/10 00:55:34;;;;;;;;;29.00;24.25;;;;;4.90;69.90;101303.28;5038274;28;45251;-77
2021/11/10 00:57:59;;;;;;;;;34.00;28.00;;;;;4.88;70.06;101287.50;5038530;28;45406;-78
2021/11/10 01:00:25;;;;;;;;;31.00;25.75;;;;;4.94;69.83;101284.72;5038492;28;45293;-77
2021/11/10 01:02:51;;;;;;;;;27.75;26.00;;;;;4.93;69.61;101288.28;5038137;28;45872;-77
2021/11/10 01:05:16;;;;;;;;;26.00;20.25;;;;;4.89;69.82;101277.81;5038294;28;45224;-77
2021/11/10 01:07:42;;;;;;;;;21.50;18.00;;;;;4.96;69.43;101285.59;5037203;28;45217;-77
2021/11/10 01:10:08;;;;;;;;;20.50;17.00;;;;;4.96;68.69;101284.69;5038248;28;45192;-77
2021/11/10 01:12:33;;;;;;;;;19.50;14.00;;;;;4.92;68.27;101283.06;5036462;28;46431;-77
2021/11/10 01:15:00;;;;;;;;;20.25;15.50;;;;;4.79;68.47;101267.47;5038211;28;45126;-78
2021/11/10 01:17:26;;;;;;;;;21.00;16.75;;;;;4.81;68.64;101278.00;5038123;28;45205;-78
2021/11/10 01:19:51;;;;;;;;;19.50;13.50;;;;;4.77;68.75;101265.78;5038080;28;45244;-78
2021/11/10 01:22:17;;;;;;;;;16.75;15.50;;;;;4.65;68.40;101251.94;5037658;28;45398;-77
2021/11/10 01:24:43;;;;;;;;;17.25;14.75;;;;;4.65;69.34;101246.66;5037585;28;45283;-77
2021/11/10 01:27:09;;;;;;;;;18.00;15.00;;;;;4.64;69.70;101260.72;5037981;28;45260;-77
2021/11/10 01:29:36;;;;;;;;;15.25;13.00;;;;;4.61;69.99;101247.63;5037911;28;45136;-77
2021/11/10 01:32:02;;;;;;;;;14.00;10.75;;;;;4.61;69.82;101247.63;5037576;28;45376;-78
2021/11/10 01:34:27;;;;;;;;;19.25;14.50;;;;;4.61;69.76;101252.88;5037813;28;45840;-77
2021/11/10 01:36:52;;;;;;;;;14.50;12.25;;;;;4.56;69.85;101251.25;5038198;28;45183;-77
2021/11/10 01:39:18;;;;;;;;;16.00;13.50;;;;;4.54;70.25;101246.00;5037865;28;45234;-77
2021/11/10 01:41:47;;;;;;;;;16.75;13.00;;;;;4.60;70.27;101247.66;5037339;28;46637;-77
2021/11/10 01:44:17;;;;;;;;;15.25;13.50;;;;;4.61;70.62;101252.88;5035872;28;45238;-77
2021/11/10 01:46:44;;;;;;;;;15.50;15.50;;;;;4.69;70.31;101262.41;5037642;28;45178;-78
2021/11/10 01:49:10;;;;;;;;;14.25;12.50;;;;;4.65;70.18;101251.09;5037903;28;45269;-77
2021/11/10 01:51:51;;;;;;;;;14.25;10.75;;;;;4.67;69.95;101259.81;5037511;28;46327;-77
2021/11/10 01:54:21;;;;;;;;;18.25;12.25;;;;;4.69;69.96;101265.03;5037616;28;45739;-77
2021/11/10 01:56:48;;;;;;;;;17.25;13.75;;;;;4.70;69.85;101253.63;5037757;28;45136;-78
2021/11/10 01:59:32;;;;;;;;;18.25;12.25;;;;;4.68;70.15;101250.16;5036010;28;45211;-78
2021/11/10 02:01:59;;;;;;;;;12.00;10.00;;;;;4.65;70.06;101253.72;5037088;28;45459;-78
2021/11/10 02:04:30;;;;;;;;;14.50;13.50;;;;;4.55;70.08;101245.13;5037304;28;45836;-77
2021/11/10 02:06:56;;;;;;;;;19.25;13.00;;;;;4.54;70.66;101245.16;5037397;28;46197;-77
2021/11/10 02:09:23;;;;;;;;;20.50;13.50;;;;;4.56;70.41;101249.50;5037450;28;45256;-77
2021/11/10 02:11:50;;;;;;;;;5.00;2.50;;;;;4.55;70.39;101239.84;5037457;28;45273;-77
2021/11/10 02:14:27;;;;;;;;;14.25;12.75;;;;;4.54;70.06;101237.25;5037445;28;45752;-77
2021/11/10 02:16:54;;;;;;;;;14.50;9.50;;;;;4.55;70.00;101231.09;5037286;28;45222;-77
2021/11/10 02:19:20;;;;;;;;;12.75;12.00;;;;;4.56;70.11;101228.44;5037070;28;45217;-77
2021/11/10 02:21:50;;;;;;;;;16.50;12.00;;;;;4.56;69.77;101238.97;5037012;28;45230;-77
2021/11/10 02:24:17;;;;;;;;;18.75;14.50;;;;;4.52;69.83;101239.91;5036745;28;45150;-77
2021/11/10 02:26:44;;;;;;;;;13.25;13.00;;;;;4.51;69.66;101239.94;5037232;28;45318;-77
2021/11/10 02:29:18;;;;;;;;;14.00;10.50;;;;;4.48;69.35;101238.25;5037380;28;45369;-77
2021/11/10 02:31:44;;;;;;;;;14.50;12.50;;;;;4.46;69.46;101224.22;5036842;28;45243;-77
2021/11/10 02:34:10;;;;;;;;;12.25;11.00;;;;;4.41;69.11;101221.69;5036941;28;45215;-77
2021/11/10 02:36:36;;;;;;;;;13.00;11.75;;;;;4.34;69.00;101227.09;5036839;28;45210;-77
2021/11/10 02:39:06;;;;;;;;;13.50;11.25;;;;;4.28;69.44;101234.19;5037134;28;45187;-77
2021/11/10 02:41:32;;;;;;;;;23.50;18.75;;;;;4.24;69.69;101224.63;5036754;28;45148;-77
2021/11/10 02:43:58;;;;;;;;;9.00;9.00;;;;;4.19;69.86;101212.44;5036664;28;45635;-77
2021/11/10 02:46:24;;;;;;;;;13.00;10.50;;;;;4.13;69.90;101208.16;5036826;28;45174;-77
2021/11/10 02:48:50;;;;;;;;;13.00;13.00;;;;;4.11;69.87;101207.31;5036938;28;45261;-77
2021/11/10 02:51:16;;;;;;;;;14.50;13.25;;;;;4.07;70.14;101208.28;5036742;28;45975;-77
2021/11/10 02:53:41;;;;;;;;;17.75;13.75;;;;;4.11;70.31;101226.59;5036796;28;45277;-77
2021/11/10 02:56:08;;;;;;;;;13.25;12.00;;;;;4.09;70.24;101224.88;5036833;28;45155;-77
2021/11/10 02:58:35;;;;;;;;;14.00;13.75;;;;;4.12;70.38;101232.75;5036848;28;45268;-77
2021/11/10 03:01:03;;;;;;;;;17.00;13.75;;;;;4.06;70.46;101215.31;5036472;28;45460;-78
2021/11/10 03:03:29;;;;;;;;;18.00;12.00;;;;;4.12;70.48;101230.13;5036578;28;45099;-77
2021/11/10 03:05:54;;;;;;;;;18.00;13.50;;;;;4.13;70.77;101219.56;5036479;28;45253;-78
2021/11/10 03:08:20;;;;;;;;;12.50;11.25;;;;;4.15;70.32;101198.47;5036464;28;45095;-77
2021/11/10 03:10:46;;;;;;;;;12.25;10.25;;;;;4.12;70.11;101195.91;5036409;28;46226;-77
2021/11/10 03:13:13;;;;;;;;;18.00;13.50;;;;;4.12;69.44;101199.41;5035945;28;45198;-77
2021/11/10 03:15:40;;;;;;;;;12.50;11.00;;;;;4.08;69.41;101186.34;5036407;28;45402;-78
2021/11/10 03:18:05;;;;;;;;;13.25;9.25;;;;;4.03;69.63;101188.16;5036326;28;45253;-77
2021/11/10 03:20:31;;;;;;;;;10.75;9.75;;;;;3.95;69.54;101183.91;5036191;28;46477;-77
2021/11/10 03:22:56;;;;;;;;;13.25;10.50;;;;;3.91;69.02;101176.09;5036047;28;45250;-77
2021/11/10 03:25:21;;;;;;;;;17.00;12.50;;;;;3.86;69.26;101185.84;5036097;28;45203;-77
2021/11/10 03:27:47;;;;;;;;;15.25;12.75;;;;;3.80;69.25;101181.53;5036146;28;45122;-77
2021/11/10 03:30:12;;;;;;;;;13.75;12.75;;;;;3.74;69.17;101189.56;5036440;28;45994;-77
2021/11/10 03:32:38;;;;;;;;;13.50;13.25;;;;;3.69;69.46;101189.63;5039553;28;45258;-77
2021/11/10 03:35:04;;;;;;;;;17.25;14.50;;;;;3.66;70.08;101187.03;5039724;28;45556;-77
2021/11/10 03:37:29;;;;;;;;;21.25;17.75;;;;;3.64;70.40;101183.56;5039864;28;45405;-77
2021/11/10 03:39:55;;;;;;;;;19.50;16.75;;;;;3.66;70.49;101180.91;5039584;28;46026;-77
2021/11/10 03:42:21;;;;;;;;;14.50;13.75;;;;;3.70;70.17;101177.34;5039228;28;45226;-77
2021/11/10 03:44:47;;;;;;;;;24.25;18.75;;;;;3.68;70.14;101172.13;5039906;28;45270;-77
2021/11/10 03:47:12;;;;;;;;;19.00;15.75;;;;;3.70;70.52;101183.47;5039407;28;45215;-77
2021/11/10 03:49:38;;;;;;;;;22.50;18.50;;;;;3.71;71.04;101193.09;5039274;28;45804;-77
2021/11/10 03:52:03;;;;;;;;;20.00;14.50;;;;;3.70;71.73;101188.72;5039234;28;45254;-78
2021/11/10 03:54:29;;;;;;;;;20.25;17.00;;;;;3.73;71.58;101193.06;5039544;28;45274;-77
2021/11/10 03:56:54;;;;;;;;;22.00;18.25;;;;;3.74;71.90;101193.03;5039403;28;45387;-77
2021/11/10 03:59:20;;;;;;;;;24.25;20.25;;;;;3.77;72.00;101192.13;5039320;28;45222;-77
2021/11/10 04:01:45;;;;;;;;;29.75;20.25;;;;;3.84;71.62;101214.81;5039529;28;45059;-77
2021/11/10 04:04:11;;;;;;;;;20.00;14.00;;;;;3.80;71.25;101213.13;5039490;28;45202;-77
2021/11/10 04:06:36;;;;;;;;;21.25;18.00;;;;;3.85;71.26;101216.53;5039265;28;45253;-77
2021/11/10 04:09:03;;;;;;;;;27.75;20.00;;;;;3.82;71.25;101227.13;5039046;28;46629;-77
2021/11/10 04:11:28;;;;;;;;;23.00;19.50;;;;;3.86;71.59;101243.72;5039231;28;45798;-77
2021/11/10 04:13:53;;;;;;;;;26.00;22.75;;;;;3.82;71.74;101245.53;5039302;28;45138;-77
2021/11/10 04:16:22;;;;;;;;;20.75;19.25;;;;;3.87;71.54;101261.25;5039100;28;45130;-77
2021/11/10 04:18:53;;;;;;;;;29.75;22.25;;;;;3.89;71.62;101270.84;5038661;28;46285;-77
2021/11/10 04:21:20;;;;;;;;;33.50;23.75;;;;;3.92;71.84;101269.91;5038974;28;45620;-77
2021/11/10 04:23:48;;;;;;;;;28.75;23.50;;;;;3.95;71.80;101267.25;5038972;28;45321;-77
2021/11/10 04:26:14;;;;;;;;;21.75;19.75;;;;;3.95;71.46;101273.38;5038633;28;45274;-77
2021/11/10 04:28:40;;;;;;;;;27.50;24.75;;;;;3.95;71.04;101270.75;5038483;28;46391;-77
2021/11/10 04:31:05;;;;;;;;;21.00;21.00;;;;;3.93;70.44;101269.91;5038655;28;45188;-77
2021/11/10 04:33:30;;;;;;;;;23.75;21.25;;;;;3.88;70.18;101262.97;5039013;28;45199;-77
2021/11/10 04:35:56;;;;;;;;;29.50;24.00;;;;;3.79;69.97;101258.72;5038489;28;45255;-77
2021/11/10 04:38:21;;;;;;;;;22.75;18.75;;;;;3.70;69.76;101246.59;5038551;28;45088;-77
2021/11/10 04:40:47;;;;;;;;;23.50;18.25;;;;;3.72;70.03;101247.44;5038760;28;45234;-77
2021/11/10 04:43:13;;;;;;;;;18.50;15.25;;;;;3.66;69.38;101239.63;5038217;28;45384;-77
2021/11/10 04:45:39;;;;;;;;;22.25;14.75;;;;;3.62;69.73;101245.84;5038717;28;45242;-78
2021/11/10 04:48:06;;;;;;;;;22.25;17.00;;;;;3.55;69.57;101242.44;5038314;28;46503;-77
2021/11/10 04:50:32;;;;;;;;;20.00;17.50;;;;;3.50;69.59;101248.66;5038365;28;45726;-77
2021/11/10 04:52:58;;;;;;;;;22.25;17.75;;;;;3.43;70.17;101250.50;5038376;28;45233;-77
2021/11/10 04:55:24;;;;;;;;;32.50;21.75;;;;;3.39;70.76;101251.44;5038463;28;45434;-77
2021/11/10 04:57:49;;;;;;;;;22.50;20.25;;;;;3.35;71.04;101252.38;5038125;28;45320;-77
2021/11/10 05:00:15;;;;;;;;;22.50;17.75;;;;;3.39;71.16;101248.81;5038464;28;45325;-77
2021/11/10 05:02:41;;;;;;;;;36.50;25.50;;;;;3.41;70.91;101258.41;5037955;28;45242;-77
2021/11/10 05:05:07;;;;;;;;;31.25;26.50;;;;;3.42;70.69;101265.41;5038407;28;45348;-77
2021/11/10 05:07:33;;;;;;;;;28.50;27.00;;;;;3.42;70.96;101264.53;5038069;28;45230;-77
2021/11/10 05:09:59;;;;;;;;;29.25;23.25;;;;;3.39;71.21;101252.31;5037807;28;46220;-78
2021/11/10 05:12:24;;;;;;;;;25.75;20.50;;;;;3.42;71.17;101243.50;5037997;28;45277;-77
2021/11/10 05:14:55;;;;;;;;;26.00;20.75;;;;;3.44;71.02;101241.72;5038150;28;45210;-77
2021/11/10 05:17:20;;;;;;;;;26.75;21.75;;;;;3.45;71.37;101246.09;5037606;28;45204;-77
2021/11/10 05:19:46;;;;;;;;;26.25;21.75;;;;;3.41;70.93;101229.50;5037784;28;45210;-77
2021/11/10 05:22:12;;;;;;;;;24.00;17.25;;;;;3.38;70.41;101224.28;5037816;28;45249;-77
2021/11/10 05:24:38;;;;;;;;;20.75;17.50;;;;;3.41;69.81;101228.63;5038224;28;45217;-77
2021/11/10 05:27:03;;;;;;;;;26.25;20.50;;;;;3.34;70.10;101227.84;5037689;28;46542;-77
2021/11/10 05:29:29;;;;;;;;;22.50;17.75;;;;;3.31;70.18;101225.28;5037962;28;45190;-77
2021/11/10 05:31:54;;;;;;;;;21.00;17.67;;;;;3.19;70.55;101213.19;5037904;28;45321;-77
2021/11/10 05:34:19;;;;;;;;;20.50;17.75;;;;;3.23;71.10;101228.00;5037780;28;45222;-77
2021/11/10 05:36:45;;;;;;;;;21.00;14.25;;;;;3.20;70.35;101228.03;5037531;28;45959;-77
2021/11/10 05:39:10;;;;;;;;;21.00;16.75;;;;;3.15;70.31;101216.75;5037420;28;45365;-77
2021/11/10 05:41:36;;;;;;;;;24.00;22.00;;;;;3.17;70.18;101230.72;5037687;28;45624;-77
2021/11/10 05:44:01;;;;;;;;;18.75;16.25;;;;;3.12;69.84;101222.00;5037141;28;45313;-77
2021/11/10 05:46:26;;;;;;;;;20.50;17.00;;;;;3.07;70.18;101214.19;5037754;28;45224;-77
2021/11/10 05:48:52;;;;;;;;;27.50;18.00;;;;;3.10;70.55;101213.28;5037528;28;45286;-77
2021/11/10 05:51:17;;;;;;;;;23.50;17.25;;;;;3.09;70.30;101222.06;5037741;28;45250;-77
2021/11/10 05:53:44;;;;;;;;;20.25;18.25;;;;;3.08;70.20;101218.56;5037002;28;45299;-78
2021/11/10 05:56:21;;;;;;;;;23.00;18.75;;;;;3.03;69.77;101196.72;5037004;28;46173;-77
2021/11/10 05:58:48;;;;;;;;;18.25;17.00;;;;;2.99;70.02;101192.41;5037585;28;45171;-78
2021/11/10 06:01:13;;;;;;;;;18.50;16.75;;;;;2.93;69.60;101198.63;5037692;28;45206;-77
2021/11/10 06:03:39;;;;;;;;;17.75;12.00;;;;;2.88;69.74;101197.81;5036265;28;45159;-77
2021/11/10 06:06:04;;;;;;;;;22.25;17.25;;;;;2.85;69.43;101189.09;5036460;28;45273;-78
2021/11/10 06:08:30;;;;;;;;;17.25;13.50;;;;;2.81;69.55;101190.91;5036485;28;45209;-77
2021/11/10 06:10:56;;;;;;;;;19.50;16.75;;;;;2.73;69.90;101183.13;5036809;28;45202;-77
2021/11/10 06:13:21;;;;;;;;;25.75;20.75;;;;;2.77;69.93;101191.84;5034423;28;45318;-77
2021/11/10 06:15:46;;;;;;;;;25.00;21.00;;;;;2.74;70.25;101197.13;5036930;28;45969;-77
2021/11/10 06:18:11;;;;;;;;;36.75;28.00;;;;;2.72;70.39;101199.78;5036913;28;45421;-77
2021/11/10 06:20:37;;;;;;;;;46.00;36.00;;;;;2.74;70.89;101211.13;5037311;28;45214;-77
2021/11/10 06:23:03;;;;;;;;;55.33;43.67;;;;;2.76;71.07;101218.97;5035426;28;45398;-77
2021/11/10 06:25:29;;;;;;;;;65.00;47.25;;;;;2.76;71.01;101216.34;5036669;28;45269;-77
2021/11/10 06:27:54;;;;;;;;;39.00;30.75;;;;;2.78;71.65;101225.09;5036832;28;45328;-77
2021/11/10 06:30:20;;;;;;;;;34.25;27.25;;;;;2.71;72.43;101216.41;5037013;28;45317;-77
2021/11/10 06:32:45;;;;;;;;;40.25;32.25;;;;;2.87;72.90;101250.38;5036990;28;45206;-77
2021/11/10 06:35:12;;;;;;;;;51.00;36.50;;;;;2.92;72.99;101264.31;5036943;28;45913;-77
2021/11/10 06:37:37;;;;;;;;;56.00;41.50;;;;;2.97;73.01;101259.03;5036623;28;45687;-77
2021/11/10 06:40:04;;;;;;;;;82.00;63.25;;;;;3.01;72.57;101256.31;5037081;28;45168;-77
2021/11/10 06:42:29;;;;;;;;;78.75;59.00;;;;;3.04;72.37;101256.28;5036540;28;45215;-77
2021/11/10 06:44:56;;;;;;;;;42.75;35.25;;;;;3.09;71.75;101266.72;5036470;28;46271;-77
2021/11/10 06:47:21;;;;;;;;;36.75;30.50;;;;;3.02;71.57;101252.81;5036605;28;45265;-77
2021/11/10 06:49:47;;;;;;;;;37.75;27.75;;;;;3.06;71.82;101270.25;5036843;28;45424;-77
2021/11/10 06:52:12;;;;;;;;;52.00;42.25;;;;;3.07;71.85;101276.41;5036607;28;45288;-77
2021/11/10 06:54:38;;;;;;;;;59.25;48.25;;;;;3.02;71.68;101284.34;5036512;28;46197;-77
2021/11/10 06:57:03;;;;;;;;;46.25;36.75;;;;;3.03;72.28;101303.59;5036174;28;45328;-77
2021/11/10 06:59:29;;;;;;;;;54.00;38.00;;;;;3.01;72.31;101311.50;5036841;28;45261;-78
2021/11/10 07:01:54;;;;;;;;;44.00;36.00;;;;;3.02;72.91;101307.09;5036618;28;45372;-77
2021/11/10 07:04:19;;;;;;;;;33.67;30.67;;;;;3.04;73.17;101316.72;5036052;28;45923;-77
2021/11/10 07:06:45;;;;;;;;;42.75;33.00;;;;;3.05;73.21;101321.09;5035371;28;45246;-78
2021/11/10 07:09:10;;;;;;;;;46.50;33.75;;;;;3.08;73.35;101326.31;5036399;28;45298;-78
2021/11/10 07:11:36;;;;;;;;;46.00;33.00;;;;;3.13;73.42;101326.25;5036054;28;45134;-77
2021/11/10 07:14:07;;;;;;;;;52.75;41.00;;;;;3.19;73.03;101339.31;5035848;28;46139;-78
2021/11/10 07:16:33;;;;;;;;;63.00;47.75;;;;;3.18;72.86;101334.94;5036121;28;45360;-77
2021/11/10 07:18:59;;;;;;;;;66.00;51.50;;;;;3.25;72.53;101338.34;5036546;28;45262;-78
2021/11/10 07:21:25;;;;;;;;;39.75;34.75;;;;;3.26;72.56;101332.22;5035827;28;45269;-78
2021/11/10 07:23:51;;;;;;;;;42.25;28.50;;;;;3.32;71.96;101328.63;5035337;28;46397;-77
2021/11/10 07:26:17;;;;;;;;;35.25;30.25;;;;;3.34;71.99;101330.38;5035738;28;45287;-78
2021/11/10 07:28:42;;;;;;;;;38.50;32.25;;;;;3.33;71.50;101333.00;5035070;28;45190;-78
2021/11/10 07:31:07;;;;;;;;;31.50;25.75;;;;;3.33;71.49;101325.13;5036276;28;45085;-78
2021/11/10 07:33:33;;;;;;;;;37.00;29.75;;;;;3.32;71.57;101321.66;5035763;28;46407;-78
2021/11/10 07:35:59;;;;;;;;;41.50;30.00;;;;;3.32;71.46;101323.38;5035914;28;45109;-78
2021/11/10 07:38:25;;;;;;;;;32.75;25.00;;;;;3.32;71.49;101334.78;5035796;28;45215;-78
2021/11/10 07:40:52;;;;;;;;;41.00;32.25;;;;;3.26;71.44;101324.31;5036297;28;45246;-78
2021/11/10 07:43:18;;;;;;;;;41.50;32.50;;;;;3.24;71.49;101321.72;5035682;28;45174;-82
2021/11/10 07:45:50;;;;;;;;;31.75;28.75;;;;;3.30;71.61;101331.28;5035445;28;45359;-82
2021/11/10 07:48:15;;;;;;;;;43.75;33.75;;;;;3.30;71.78;101326.03;5035900;28;45221;-81
2021/11/10 07:50:41;;;;;;;;;38.25;31.50;;;;;3.30;71.51;101305.00;5036100;28;45310;-81
2021/11/10 07:53:06;;;;;;;;;38.25;28.75;;;;;3.37;71.03;101288.25;5035513;28;46133;-81
2021/11/10 07:55:32;;;;;;;;;32.00;30.75;;;;;3.38;71.00;101294.41;5035594;28;45335;-83
2021/11/10 07:57:57;;;;;;;;;37.50;27.75;;;;;3.37;70.73;101290.88;5035873;28;45336;-82
2021/11/10 08:00:23;;;;;;;;;38.00;30.25;;;;;3.33;71.04;101294.44;5035807;28;45313;-78
2021/11/10 08:02:49;;;;;;;;;40.75;35.50;;;;;3.28;71.05;101285.78;5035370;28;46807;-78
2021/11/10 08:05:15;;;;;;;;;43.50;35.25;;;;;3.32;71.50;101284.84;5035637;28;45200;-78
2021/11/10 08:07:40;;;;;;;;;39.25;30.75;;;;;3.35;71.61;101284.78;5035720;28;45324;-78
2021/11/10 08:10:08;;;;;;;;;38.75;31.25;;;;;3.47;71.83;101299.53;5035765;28;45236;-78
2021/11/10 08:12:36;;;;;;;;;36.75;31.50;;;;;3.50;71.64;101298.63;5035373;28;45224;-77
2021/11/10 08:15:06;;;;;;;;;37.50;34.50;;;;;3.61;71.54;101302.81;5035357;28;45247;-77
2021/11/10 08:17:32;;;;;;;;;33.75;32.50;;;;;3.68;71.58;101311.50;5037858;28;45239;-77
2021/11/10 08:19:57;;;;;;;;;36.25;29.25;;;;;3.74;71.83;101318.44;5039232;28;45147;-77
2021/11/10 08:22:22;;;;;;;;;40.00;29.50;;;;;3.85;71.91;101313.88;5038732;28;46678;-77
2021/11/10 08:24:49;;;;;;;;;27.75;26.25;;;;;3.79;71.73;101301.69;5038616;28;45242;-77
2021/11/10 08:27:15;;;;;;;;;40.25;32.25;;;;;3.96;71.73;101318.97;5038650;28;45147;-77
2021/11/10 08:29:40;;;;;;;;;36.25;30.00;;;;;4.00;71.43;101320.66;5039141;28;45263;-77
2021/11/10 08:32:07;;;;;;;;;34.25;29.25;;;;;4.06;71.31;101333.75;5037314;28;46737;-77
2021/11/10 08:34:32;;;;;;;;;41.75;36.25;;;;;4.06;71.22;101340.75;5038484;28;45246;-77
2021/11/10 08:36:58;;;;;;;;;43.25;34.50;;;;;4.06;71.23;101336.38;5038456;28;45258;-77
2021/11/10 08:39:23;;;;;;;;;44.00;30.25;;;;;4.17;71.50;101346.72;5038465;28;45185;-77
2021/11/10 08:41:49;;;;;;;;;40.00;36.00;;;;;4.18;71.29;101327.41;5038649;28;46038;-77
2021/11/10 08:44:15;;;;;;;;;39.25;33.25;;;;;4.28;71.38;101330.75;5038060;28;45340;-77
2021/11/10 08:46:43;;;;;;;;;45.50;36.00;;;;;4.37;71.44;101335.00;5038696;28;45300;-77
2021/11/10 08:49:09;;;;;;;;;38.50;33.75;;;;;4.44;71.15;101333.97;5038852;28;45147;-77
2021/11/10 08:51:35;;;;;;;;;38.75;36.00;;;;;4.47;71.18;101328.66;5038290;28;46166;-77
2021/11/10 08:54:00;;;;;;;;;42.75;34.00;;;;;4.59;71.28;101346.88;5038646;28;45202;-77
2021/11/10 08:56:25;;;;;;;;;45.50;37.00;;;;;4.65;71.08;101343.28;5038482;28;45274;-77
2021/11/10 08:58:51;;;;;;;;;45.75;36.25;;;;;4.70;71.02;101345.81;5038729;28;45235;-76
2021/11/10 09:01:17;;;;;;;;;38.00;33.75;;;;;4.74;70.64;101348.38;5038013;28;45953;-77
2021/11/10 09:03:43;;;;;;;;;44.25;33.75;;;;;4.78;70.82;101354.47;5037819;28;45790;-76
2021/11/10 09:06:09;;;;;;;;;38.25;36.50;;;;;4.81;70.75;101343.84;5038092;28;45211;-77
2021/11/10 09:08:35;;;;;;;;;39.50;33.75;;;;;4.82;70.67;101346.47;5037044;28;45319;-77
2021/11/10 09:11:00;;;;;;;;;46.50;38.00;;;;;4.86;70.82;101349.03;5038150;28;45754;-77
2021/11/10 09:13:27;;;;;;;;;39.75;32.50;;;;;4.89;70.76;101335.78;5038293;28;45163;-77
2021/11/10 09:15:53;;;;;;;;;43.25;37.50;;;;;4.90;70.97;101335.75;5038135;28;45251;-77
2021/11/10 09:18:19;;;;;;;;;40.50;33.75;;;;;4.92;71.32;101333.13;5038050;28;45287;-77
2021/11/10 09:20:45;;;;;;;;;41.00;36.50;;;;;4.93;71.68;101327.81;5038011;28;46045;-77
2021/11/10 09:23:13;;;;;;;;;43.25;37.00;;;;;4.97;71.84;101316.31;5037869;28;45241;-77
2021/11/10 09:25:39;;;;;;;;;51.75;38.75;;;;;5.01;71.72;101296.03;5053285;28;45289;-77
2021/11/10 09:28:08;;;;;;;;;39.25;31.75;;;;;5.11;72.04;101302.00;5037025;28;45335;-77
2021/11/10 09:30:37;;;;;;;;;45.25;37.75;;;;;5.12;72.05;101293.19;5037943;28;45386;-77
2021/11/10 09:33:03;;;;;;;;;50.50;40.75;;;;;5.24;71.97;101294.69;5037916;28;45699;-77
2021/11/10 09:35:29;;;;;;;;;48.00;38.75;;;;;5.31;72.38;101285.75;5037845;28;45159;-77
2021/11/10 09:37:56;;;;;;;;;50.00;39.00;;;;;5.44;72.25;101295.09;5037755;28;45242;-77
2021/11/10 09:40:25;;;;;;;;;54.75;44.00;;;;;5.56;72.39;101296.63;5037805;28;46668;-77
2021/11/10 09:42:50;;;;;;;;;51.00;39.25;;;;;5.69;72.34;101307.78;5037251;28;45233;-77
2021/11/10 09:45:20;;;;;;;;;50.50;38.50;;;;;5.82;71.70;101316.28;5037616;28;45305;-77
2021/11/10 09:47:46;;;;;;;;;54.75;41.25;;;;;5.98;71.71;101328.22;5037829;28;45325;-77
2021/11/10 09:50:18;;;;;;;;;56.00;41.50;;;;;6.07;71.18;101323.63;5037316;28;46231;-77
2021/11/10 09:52:45;;;;;;;;;48.00;40.75;;;;;6.32;71.31;101332.69;5037509;28;45188;-77
2021/11/10 09:55:13;;;;;;;;;52.00;40.50;;;;;6.53;70.97;101335.69;5037251;28;45170;-77
2021/11/10 09:57:40;;;;;;;;;54.50;38.00;;;;;6.71;70.94;101342.25;5037440;28;45189;-77
2021/11/10 10:00:09;;;;;;;;;47.25;40.00;;;;;6.97;70.11;101348.59;5037219;28;46313;-77
2021/11/10 10:02:35;;;;;;;;;49.25;41.75;;;;;7.20;69.99;101337.41;5037104;28;45706;-77
2021/11/10 10:05:01;;;;;;;;;53.25;42.75;;;;;7.67;69.44;101358.09;5037347;28;45192;-77
2021/11/10 10:07:27;;;;;;;;;49.00;40.00;;;;;8.12;69.05;101349.59;5037472;28;45056;-77
2021/11/10 10:09:52;;;;;;;;;46.75;37.00;;;;;8.77;68.07;101350.97;5037401;28;45452;-77
2021/11/10 10:12:19;;;;;;;;;46.00;36.75;;;;;9.44;66.99;101341.47;5037336;28;45201;-77
2021/11/10 10:14:49;;;;;;;;;36.50;34.00;;;;;10.20;65.70;101341.16;5037127;28;45198;-77
2021/11/10 10:17:33;;;;;;;;;45.50;38.25;;;;;11.03;64.51;101345.63;5035986;28;45335;-77
2021/11/10 10:19:59;;;;;;;;;43.25;36.75;;;;;11.79;63.01;101333.31;5037361;28;46184;-77
2021/11/10 10:22:24;;;;;;;;;41.25;34.75;;;;;12.49;61.48;101328.13;5037083;28;45211;-77
2021/11/10 10:24:52;;;;;;;;;38.75;34.75;;;;;13.15;59.85;101329.13;5037055;28;45258;-77
2021/11/10 10:27:29;;;;;;;;;47.50;37.00;;;;;13.72;58.95;101328.72;5037362;28;45282;-77
2021/11/10 10:30:25;;;;;;;;;44.00;34.25;;;;;14.34;57.79;101328.72;5037369;28;45996;-76
2021/11/10 10:32:56;;;;;;;;;47.00;34.25;;;;;14.85;56.75;101328.41;5037232;28;45108;-78
2021/11/10 10:36:00;;;;;;;;;47.50;35.00;;;;;15.29;55.04;101331.94;5036678;28;45280;-77
2021/11/10 10:38:46;;;;;;;;;44.50;33.50;;;;;15.62;54.62;101320.03;5034235;28;45127;-77
2021/11/10 10:41:12;;;;;;;;;36.00;30.75;;;;;15.93;53.95;101312.72;5036433;28;45457;-77
2021/11/10 10:43:49;;;;;;;;;38.75;33.00;;;;;16.24;52.81;101302.63;5036396;28;45235;-77
2021/11/10 10:46:16;;;;;;;;;39.50;32.50;;;;;16.52;52.11;101298.94;5036675;28;45163;-77
2021/11/10 10:48:42;;;;;;;;;31.00;29.00;;;;;16.81;51.00;101310.31;5036934;28;45127;-77
2021/11/10 10:51:09;;;;;;;;;37.75;33.00;;;;;16.99;51.13;101307.38;5034848;28;46155;-77
2021/11/10 10:53:47;;;;;;;;;34.00;30.25;;;;;17.19;50.19;101304.13;5037037;28;45309;-77
2021/11/10 10:56:36;;;;;;;;;29.00;28.25;;;;;17.48;50.34;101297.63;5036359;28;45480;-77
2021/11/10 10:59:13;;;;;;;;;27.75;26.50;;;;;17.73;48.49;101286.78;5036769;28;45391;-77
2021/11/10 11:01:58;;;;;;;;;25.25;19.75;;;;;18.01;47.94;101283.88;5036021;28;46711;-77
2021/11/10 11:04:31;;;;;;;;;26.00;20.50;;;;;18.27;47.73;101282.78;5036502;28;45171;-77
2021/11/10 11:07:08;;;;;;;;;27.75;25.25;;;;;18.50;47.69;101274.75;5036327;28;45364;-78
2021/11/10 11:09:40;;;;;;;;;21.75;18.25;;;;;18.69;45.92;101270.63;5035301;28;45372;-78
2021/11/10 11:12:13;;;;;;;;;21.25;18.75;;;;;18.80;45.66;101271.50;5036424;28;46287;-77
2021/11/10 11:17:18;;;;;;;;;13.25;12.00;;;;;18.87;43.83;101274.59;5036197;28;45431;-77
2021/11/10 11:20:08;;;;;;;;;13.75;10.75;;;;;18.75;43.82;101273.69;5036522;28;45205;-77